Time;durP1;ratioP1;P1;durP2;ratioP2;P2;SDS_P1;SDS_P2;PMS_P1;PMS_P2;Temp;Humidity;BMP_temperature;BMP_pressure;BME280_temperature;BME280_humidity;BME280_pressure;Samples;Min_cycle;Max_cycle;Signal;HPM_P1;HPM_P2
2021/07/28 00:00:38;;;;;;;;;;;;;;;;;;;;;
2021/07/28 00:03:36;;;;;;;37.70;21.15;;;;;;;;;;4329842;32;20160;-79
2021/07/28 00:06:37;;;;;;;47.08;23.65;;;;;;;;;;4318885;32;20358;-79
2021/07/28 00:09:02;;;;;;;40.75;23.52;;;;;;;;;;4329951;32;20198;-79
2021/07/28 00:11:30;;;;;;;37.72;21.98;;;;;;;;;;4412206;32;20149;-79
2021/07/28 00:14:09;;;;;;;43.35;22.90;;;;;;;;;;4407308;32;20165;-79
2021/07/28 00:16:34;;;;;;;43.47;24.17;;;;;;;;;;4406990;32;20191;-79
2021/07/28 00:25:00;;;;;;;;;;;;;;;;;;;;;
2021/07/28 00:27:31;;;;;;;50.00;23.95;;;;;;;;;;4420562;32;20153;-79
2021/07/28 00:30:23;;;;;;;44.22;22.65;;;;;;;;;;4420793;32;20157;-79
2021/07/28 00:33:08;;;;;;;;;;;;;;;;;;;;;
2021/07/28 00:35:55;;;;;;;;;;;;;;;;;;;;;
2021/07/28 00:41:06;;;;;;;37.67;20.42;;;;;;;;;;4409646;32;20287;-79
2021/07/28 00:43:50;;;;;;;40.25;21.27;;;;;;;;;;4407590;32;20498;-79
2021/07/28 00:49:08;;;;;;;32.67;17.42;;;;;;;;;;4408316;32;20176;-79
2021/07/28 00:51:39;;;;;;;34.85;16.75;;;;;;;;;;4406586;32;20158;-79
2021/07/28 00:54:06;;;;;;;36.22;16.87;;;;;;;;;;4420847;32;20234;-79
2021/07/28 00:56:37;;;;;;;26.70;15.43;;;;;;;;;;4406539;32;20190;-79
2021/07/28 00:59:02;;;;;;;32.05;17.10;;;;;;;;;;4407209;32;20231;-79
2021/07/28 01:01:35;;;;;;;35.33;19.23;;;;;;;;;;4405969;32;20154;-79
2021/07/28 01:04:00;;;;;;;27.77;15.90;;;;;;;;;;4407151;32;20503;-79
2021/07/28 01:06:35;;;;;;;27.90;15.15;;;;;;;;;;4406838;32;20165;-79
2021/07/28 01:09:01;;;;;;;25.67;15.45;;;;;;;;;;4406934;32;20154;-78
2021/07/28 01:18:12;;;;;;;30.45;17.52;;;;;;;;;;4316792;32;20171;-79
2021/07/28 01:21:07;;;;;;;33.55;17.60;;;;;;;;;;4317011;32;20164;-79
2021/07/28 01:23:37;;;;;;;35.05;19.20;;;;;;;;;;4304916;33;20168;-79
2021/07/28 01:26:29;;;;;;;;;;;;;;;;;;;;;
2021/07/28 01:29:04;;;;;;;43.10;20.48;;;;;;;;;;4335971;33;20192;-79
2021/07/28 01:31:30;;;;;;;43.22;23.20;;;;;;;;;;4410894;32;20159;-79
2021/07/28 01:37:13;;;;;;;49.13;24.85;;;;;;;;;;4363031;32;20685;-79
2021/07/28 01:39:59;;;;;;;51.83;25.48;;;;;;;;;;4350412;33;20174;-79
2021/07/28 01:45:25;;;;;;;46.88;26.42;;;;;;;;;;4410483;32;20153;-78
2021/07/28 01:50:56;;;;;;;56.00;28.23;;;;;;;;;;4348093;33;20185;-79
2021/07/28 01:53:22;;;;;;;55.88;27.58;;;;;;;;;;4421748;32;20248;-78
2021/07/28 01:56:24;;;;;;;51.08;27.23;;;;;;;;;;4425338;32;20589;-78
2021/07/28 01:58:55;;;;;;;45.88;24.83;;;;;;;;;;4425192;32;20287;-78
2021/07/28 02:01:26;;;;;;;54.67;26.10;;;;;;;;;;4411188;32;20158;-78
2021/07/28 02:04:13;;;;;;;48.97;26.52;;;;;;;;;;4425881;32;20150;-78
2021/07/28 02:07:50;;;;;;;56.92;27.27;;;;;;;;;;4411388;32;20158;-78
2021/07/28 02:13:02;;;;;;;55.25;27.80;;;;;;;;;;4363204;32;20590;-78
2021/07/28 02:15:56;;;;;;;;;;;;;;;;;;;;;
2021/07/28 02:18:24;;;;;;;54.72;25.95;;;;;;;;;;4420119;32;20181;-78
2021/07/28 02:20:56;;;;;;;58.13;27.87;;;;;;;;;;4411069;32;20165;-78
2021/07/28 02:23:24;;;;;;;63.38;30.77;;;;;;;;;;4422304;32;20593;-78
2021/07/28 02:25:59;;;;;;;69.00;30.10;;;;;;;;;;4408710;32;20214;-78
2021/07/28 02:28:24;;;;;;;58.15;29.67;;;;;;;;;;4408674;32;20179;-78
2021/07/28 02:30:50;;;;;;;64.00;29.85;;;;;;;;;;4408701;32;20508;-78
2021/07/28 02:33:18;;;;;;;55.25;27.35;;;;;;;;;;4393349;32;20230;-78
2021/07/28 02:35:56;;;;;;;62.55;29.58;;;;;;;;;;4359880;33;20135;-78
2021/07/28 02:38:29;;;;;;;59.42;28.52;;;;;;;;;;4358702;32;20212;-79
2021/07/28 02:41:02;;;;;;;60.35;26.98;;;;;;;;;;4359117;32;20203;-78
2021/07/28 02:43:29;;;;;;;58.10;28.62;;;;;;;;;;4359567;33;20151;-78
2021/07/28 02:57:56;;;;;;;56.55;26.83;;;;;;;;;;4359198;33;20178;-78
2021/07/28 03:00:21;;;;;;;64.55;31.85;;;;;;;;;;4346341;32;20207;-79
2021/07/28 03:03:19;;;;;;;62.33;28.58;;;;;;;;;;4359453;33;20503;-78
2021/07/28 03:06:20;;;;;;;56.97;28.48;;;;;;;;;;4353948;32;20167;-79
2021/07/28 03:08:54;;;;;;;60.22;29.05;;;;;;;;;;4360184;32;20244;-79
2021/07/28 03:11:28;;;;;;;61.85;30.88;;;;;;;;;;4360057;32;20138;-78
2021/07/28 03:14:15;;;;;;;61.22;29.87;;;;;;;;;;4358364;32;20158;-79
2021/07/28 03:16:40;;;;;;;62.88;31.45;;;;;;;;;;4360149;32;20155;-79
2021/07/28 03:19:17;;;;;;;70.80;32.08;;;;;;;;;;4358236;32;20181;-79
2021/07/28 03:22:13;;;;;;;63.87;30.42;;;;;;;;;;4357654;33;20202;-79
2021/07/28 03:24:58;;;;;;;71.20;34.45;;;;;;;;;;4359293;33;20177;-80
2021/07/28 03:27:35;;;;;;;71.37;33.78;;;;;;;;;;4359264;32;20123;-79
2021/07/28 03:33:32;;;;;;;77.37;36.03;;;;;;;;;;4347298;32;20206;-78
2021/07/28 03:36:07;;;;;;;88.80;39.53;;;;;;;;;;4361330;32;20178;-79
2021/07/28 03:38:56;;;;;;;90.40;41.63;;;;;;;;;;4335161;33;20254;-79
2021/07/28 03:44:45;;;;;;;86.40;40.55;;;;;;;;;;4359196;32;20182;-79
2021/07/28 03:48:00;;;;;;;;;;;;;;;;;;;;;
2021/07/28 03:50:36;;;;;;;105.43;47.25;;;;;;;;;;4359262;33;20127;-78
2021/07/28 03:53:27;;;;;;;100.78;43.17;;;;;;;;;;4346818;33;20225;-80
2021/07/28 03:56:05;;;;;;;103.93;44.03;;;;;;;;;;4345685;32;20202;-79
2021/07/28 03:58:30;;;;;;;113.12;51.45;;;;;;;;;;4344209;33;20131;-79
2021/07/28 04:01:18;;;;;;;117.47;52.47;;;;;;;;;;4343907;33;20163;-80
2021/07/28 04:07:23;;;;;;;111.70;47.33;;;;;;;;;;4344033;33;20161;-79
2021/07/28 04:16:12;;;;;;;98.22;46.25;;;;;;;;;;4388757;32;20221;-79
2021/07/28 04:19:15;;;;;;;89.47;43.78;;;;;;;;;;4375960;32;20166;-79
2021/07/28 04:21:56;;;;;;;88.45;41.83;;;;;;;;;;4375446;32;20184;-78
2021/07/28 04:33:36;;;;;;;71.35;33.55;;;;;;;;;;4371917;32;20169;-79
2021/07/28 04:36:02;;;;;;;73.22;34.53;;;;;;;;;;4373581;32;20647;-79
2021/07/28 04:38:41;;;;;;;69.93;33.88;;;;;;;;;;4383835;32;20224;-79
2021/07/28 04:41:15;;;;;;;60.95;32.05;;;;;;;;;;4343587;33;20305;-80
2021/07/28 04:43:56;;;;;;;64.65;32.38;;;;;;;;;;4330084;32;20184;-79
2021/07/28 04:46:54;;;;;;;70.85;36.70;;;;;;;;;;4341663;32;20697;-79
2021/07/28 04:49:28;;;;;;;59.08;30.77;;;;;;;;;;4387394;32;20577;-79
2021/07/28 04:52:26;;;;;;;;;;;;;;;;;;;;;
2021/07/28 04:55:22;;;;;;;;;;;;;;;;;;;;;
2021/07/28 04:58:02;;;;;;;52.08;27.10;;;;;;;;;;4337489;33;20167;-79
2021/07/28 05:01:06;;;;;;;56.53;30.12;;;;;;;;;;4343445;33;20144;-78
2021/07/28 05:04:17;;;;;;;51.65;28.95;;;;;;;;;;4327741;33;20420;-79
2021/07/28 05:07:02;;;;;;;;;;;;;;;;;;;;;
2021/07/28 05:13:01;;;;;;;45.20;26.58;;;;;;;;;;4311809;33;20205;-79
2021/07/28 05:15:29;;;;;;;45.33;24.00;;;;;;;;;;4333736;32;20652;-79
2021/07/28 05:17:55;;;;;;;39.90;24.83;;;;;;;;;;4330396;33;20166;-79
2021/07/28 05:20:27;;;;;;;44.28;24.42;;;;;;;;;;4343395;33;20250;-79
2021/07/28 05:22:57;;;;;;;31.50;20.92;;;;;;;;;;4329577;32;20182;-79
2021/07/28 05:25:28;;;;;;;32.47;19.75;;;;;;;;;;4343649;33;20220;-78
2021/07/28 05:27:57;;;;;;;30.77;19.75;;;;;;;;;;4342725;33;20216;-79
2021/07/28 05:30:27;;;;;;;29.90;17.75;;;;;;;;;;4357849;32;20197;-78
2021/07/28 05:33:01;;;;;;;25.23;17.37;;;;;;;;;;4356994;32;20194;-79
2021/07/28 05:35:27;;;;;;;26.95;16.65;;;;;;;;;;4363488;32;20205;-80
2021/07/28 05:38:07;;;;;;;25.00;17.27;;;;;;;;;;4343823;33;20201;-79
2021/07/28 05:40:35;;;;;;;21.55;14.95;;;;;;;;;;4356890;32;20474;-78
2021/07/28 05:43:01;;;;;;;30.90;17.55;;;;;;;;;;4344409;33;20527;-79
2021/07/28 05:46:15;;;;;;;23.67;14.93;;;;;;;;;;4345833;32;20174;-80
2021/07/28 05:48:40;;;;;;;22.40;14.63;;;;;;;;;;4339089;33;20174;-80
2021/07/28 05:51:11;;;;;;;22.98;13.60;;;;;;;;;;4350005;33;20536;-79
2021/07/28 05:53:39;;;;;;;17.67;11.32;;;;;;;;;;4338819;32;20156;-80
2021/07/28 05:56:32;;;;;;;;;;;;;;;;;;;;;
2021/07/28 05:59:06;;;;;;;18.08;11.63;;;;;;;;;;4374636;32;20161;-79
2021/07/28 06:01:40;;;;;;;16.08;11.93;;;;;;;;;;4360538;33;20176;-80
2021/07/28 06:04:28;;;;;;;21.08;11.77;;;;;;;;;;4360596;33;20135;-80
2021/07/28 06:07:01;;;;;;;18.33;12.00;;;;;;;;;;4345097;33;20583;-78
2021/07/28 06:09:55;;;;;;;16.92;10.60;;;;;;;;;;4350426;33;20177;-80
2021/07/28 06:12:20;;;;;;;19.55;12.80;;;;;;;;;;4357065;32;20196;-78
2021/07/28 06:15:10;;;;;;;22.00;13.30;;;;;;;;;;4346781;32;20254;-79
2021/07/28 06:17:51;;;;;;;;;;;;;;;;;;;;;
2021/07/28 06:20:34;;;;;;;18.02;12.50;;;;;;;;;;4360324;33;20173;-79
2021/07/28 06:22:59;;;;;;;16.70;12.10;;;;;;;;;;4360565;33;20188;-79
2021/07/28 06:25:24;;;;;;;16.08;11.15;;;;;;;;;;4422842;32;20165;-78
2021/07/28 06:28:08;;;;;;;16.55;10.35;;;;;;;;;;4422849;32;20243;-81
2021/07/28 06:30:36;;;;;;;15.23;10.10;;;;;;;;;;4386767;32;20486;-79
2021/07/28 06:33:04;;;;;;;16.20;10.93;;;;;;;;;;4401171;32;20723;-79
2021/07/28 06:35:48;;;;;;;;;;;;;;;;;;;;;
2021/07/28 06:38:17;;;;;;;19.02;11.05;;;;;;;;;;4374899;32;20184;-80
2021/07/28 06:40:47;;;;;;;14.20;8.88;;;;;;;;;;4365720;32;20216;-78
2021/07/28 06:43:21;;;;;;;12.95;8.98;;;;;;;;;;4398303;32;20137;-79
2021/07/28 06:46:01;;;;;;;10.70;8.38;;;;;;;;;;4423520;32;20627;-77
2021/07/28 06:48:35;;;;;;;14.18;8.13;;;;;;;;;;4437139;32;20141;-79
2021/07/28 06:54:16;;;;;;;13.27;8.40;;;;;;;;;;4296414;32;20148;-78
2021/07/28 06:56:41;;;;;;;18.35;8.82;;;;;;;;;;4299757;33;20282;-79
2021/07/28 06:59:25;;;;;;;11.18;8.10;;;;;;;;;;4385747;32;20163;-78
2021/07/28 07:02:02;;;;;;;12.73;8.00;;;;;;;;;;4347320;33;20159;-78
2021/07/28 07:04:30;;;;;;;14.10;8.63;;;;;;;;;;4358690;33;20215;-78
2021/07/28 07:07:30;;;;;;;12.93;8.68;;;;;;;;;;4358074;33;20182;-78
2021/07/28 07:12:43;;;;;;;11.50;8.52;;;;;;;;;;4359688;33;20177;-79
2021/07/28 07:15:13;;;;;;;12.23;8.80;;;;;;;;;;4358324;32;20159;-79
2021/07/28 07:17:43;;;;;;;13.15;9.07;;;;;;;;;;4355867;32;20157;-79
2021/07/28 07:20:16;;;;;;;13.13;9.10;;;;;;;;;;4372978;32;20167;-78
2021/07/28 07:22:58;;;;;;;12.57;8.93;;;;;;;;;;4348919;32;20201;-77
2021/07/28 07:25:35;;;;;;;15.95;9.27;;;;;;;;;;4358034;32;20190;-79
2021/07/28 07:28:22;;;;;;;12.98;8.88;;;;;;;;;;4357847;32;20196;-78
2021/07/28 07:30:50;;;;;;;14.85;8.43;;;;;;;;;;4359755;32;20169;-77
2021/07/28 07:36:19;;;;;;;12.45;7.68;;;;;;;;;;4358869;33;20633;-79
2021/07/28 07:38:44;;;;;;;12.98;7.50;;;;;;;;;;4357745;32;20234;-78
2021/07/28 07:41:20;;;;;;;10.48;7.30;;;;;;;;;;4346119;32;20596;-80
2021/07/28 07:43:57;;;;;;;13.02;7.60;;;;;;;;;;4345279;33;20177;-78
2021/07/28 07:49:40;;;;;;;10.50;6.78;;;;;;;;;;4356779;32;20178;-78
2021/07/28 07:52:05;;;;;;;9.55;7.15;;;;;;;;;;4346635;33;20201;-78
2021/07/28 07:54:40;;;;;;;10.45;7.07;;;;;;;;;;4358328;33;20138;-76
2021/07/28 07:57:05;;;;;;;9.38;6.70;;;;;;;;;;4358725;32;20173;-77
2021/07/28 07:59:33;;;;;;;12.35;7.20;;;;;;;;;;4359975;32;20218;-78
2021/07/28 08:02:04;;;;;;;10.30;6.65;;;;;;;;;;4358357;32;20143;-78
2021/07/28 08:04:32;;;;;;;11.90;6.87;;;;;;;;;;4357448;33;20159;-79
2021/07/28 08:06:58;;;;;;;12.00;6.55;;;;;;;;;;4362267;32;20178;-80
2021/07/28 08:09:23;;;;;;;10.55;7.12;;;;;;;;;;4360944;32;20206;-78
2021/07/28 08:11:59;;;;;;;10.68;6.15;;;;;;;;;;4358688;32;20198;-78
2021/07/28 08:17:50;;;;;;;10.38;5.90;;;;;;;;;;4358857;33;20614;-78
2021/07/28 08:20:36;;;;;;;9.68;5.85;;;;;;;;;;4325784;32;20588;-78
2021/07/28 08:23:09;;;;;;;15.18;6.35;;;;;;;;;;4358537;32;20169;-78
2021/07/28 08:25:34;;;;;;;10.13;6.00;;;;;;;;;;4359691;32;20594;-79
2021/07/28 08:28:00;;;;;;;12.70;6.00;;;;;;;;;;4360410;32;20253;-79
2021/07/28 08:30:36;;;;;;;14.13;6.47;;;;;;;;;;4373757;32;20131;-79
2021/07/28 08:33:11;;;;;;;14.75;6.20;;;;;;;;;;4360094;32;20228;-80
2021/07/28 08:35:39;;;;;;;9.55;5.85;;;;;;;;;;4357310;32;20184;-80
2021/07/28 08:38:06;;;;;;;10.43;6.00;;;;;;;;;;4365815;32;20227;-78
2021/07/28 08:40:34;;;;;;;11.05;6.18;;;;;;;;;;4421313;32;20629;-79
2021/07/28 08:43:19;;;;;;;12.20;6.43;;;;;;;;;;4422284;32;20226;-78
2021/07/28 08:45:55;;;;;;;10.95;5.47;;;;;;;;;;4422700;32;20201;-79
2021/07/28 08:48:30;;;;;;;10.13;6.05;;;;;;;;;;4421597;32;20157;-78
2021/07/28 08:51:22;;;;;;;8.32;5.37;;;;;;;;;;4362636;32;20603;-78
2021/07/28 08:54:20;;;;;;;10.57;6.05;;;;;;;;;;4349398;32;20162;-80
2021/07/28 08:56:58;;;;;;;11.20;6.28;;;;;;;;;;4358667;32;20185;-78
2021/07/28 08:59:32;;;;;;;11.25;5.62;;;;;;;;;;4373404;32;20134;-78
2021/07/28 09:01:59;;;;;;;10.00;5.07;;;;;;;;;;4358916;32;20163;-80
2021/07/28 09:04:28;;;;;;;9.88;5.45;;;;;;;;;;4352447;32;20163;-77
2021/07/28 09:07:11;;;;;;;8.27;5.10;;;;;;;;;;4359137;32;20615;-78
2021/07/28 09:10:18;;;;;;;;;;;;;;;;;;;;;
2021/07/28 09:12:42;;;;;;;10.20;5.40;;;;;;;;;;4340141;33;20206;-79
2021/07/28 09:15:37;;;;;;;;;;;;;;;;;;;;;
2021/07/28 09:18:22;;;;;;;9.48;5.10;;;;;;;;;;4343640;32;20197;-79
2021/07/28 09:20:50;;;;;;;10.43;4.93;;;;;;;;;;4343397;32;20135;-79
2021/07/28 09:23:23;;;;;;;9.88;4.85;;;;;;;;;;4342795;33;20128;-80
2021/07/28 09:26:15;;;;;;;10.63;5.32;;;;;;;;;;4330024;33;20148;-78
2021/07/28 09:29:15;;;;;;;14.02;5.00;;;;;;;;;;4332613;32;20186;-81
2021/07/28 09:31:44;;;;;;;7.43;4.65;;;;;;;;;;4342756;33;20132;-79
2021/07/28 09:34:23;;;;;;;11.93;5.20;;;;;;;;;;4329141;33;20190;-80
2021/07/28 09:36:58;;;;;;;11.32;6.12;;;;;;;;;;4329893;32;20156;-78
2021/07/28 09:39:54;;;;;;;13.23;6.12;;;;;;;;;;4329304;32;20178;-79
2021/07/28 09:42:28;;;;;;;10.60;6.40;;;;;;;;;;4329669;32;20176;-77
2021/07/28 09:45:03;;;;;;;10.23;6.00;;;;;;;;;;4341829;32;20170;-80
2021/07/28 09:47:38;;;;;;;9.40;5.25;;;;;;;;;;4349502;32;20162;-78
2021/07/28 09:50:03;;;;;;;11.88;5.62;;;;;;;;;;4339766;32;20636;-78
2021/07/28 09:52:32;;;;;;;9.40;4.93;;;;;;;;;;4337598;33;20159;-79
2021/07/28 09:55:07;;;;;;;13.20;5.70;;;;;;;;;;4333155;32;20191;-79
2021/07/28 09:57:33;;;;;;;12.40;5.28;;;;;;;;;;4339861;32;20202;-78
2021/07/28 10:00:08;;;;;;;11.68;4.55;;;;;;;;;;4339011;32;20205;-79
2021/07/28 10:02:37;;;;;;;7.62;3.97;;;;;;;;;;4341861;33;20229;-78
2021/07/28 10:05:12;;;;;;;5.03;4.20;;;;;;;;;;4359577;33;20332;-78
2021/07/28 10:08:02;;;;;;;12.00;4.28;;;;;;;;;;4346150;32;20215;-79
2021/07/28 10:10:26;;;;;;;10.05;4.30;;;;;;;;;;4359422;32;20610;-80
2021/07/28 10:12:55;;;;;;;10.18;4.05;;;;;;;;;;4345753;33;20190;-79
2021/07/28 10:15:26;;;;;;;5.53;3.75;;;;;;;;;;4345820;33;20222;-77
2021/07/28 10:17:55;;;;;;;9.70;4.43;;;;;;;;;;4346262;33;20160;-79
2021/07/28 10:20:31;;;;;;;7.28;3.78;;;;;;;;;;4358973;33;20150;-77
2021/07/28 10:23:02;;;;;;;10.30;4.10;;;;;;;;;;4345819;33;20214;-80
2021/07/28 10:28:33;;;;;;;9.68;4.10;;;;;;;;;;4360037;32;20257;-79
2021/07/28 10:31:18;;;;;;;9.70;4.00;;;;;;;;;;4346206;33;20178;-78
2021/07/28 10:33:46;;;;;;;6.12;3.72;;;;;;;;;;4346401;32;20247;-80
2021/07/28 10:36:23;;;;;;;6.18;3.55;;;;;;;;;;4357994;32;20186;-79
2021/07/28 10:38:55;;;;;;;8.70;3.67;;;;;;;;;;4346470;32;20222;-78
2021/07/28 10:41:41;;;;;;;12.27;3.62;;;;;;;;;;4346229;32;20163;-79
2021/07/28 10:44:38;;;;;;;;;;;;;;;;;;;;;
2021/07/28 10:47:04;;;;;;;10.27;3.28;;;;;;;;;;4359374;33;20148;-79
2021/07/28 10:49:54;;;;;;;12.13;3.40;;;;;;;;;;4350634;32;20201;-79
2021/07/28 10:52:49;;;;;;;;;;;;;;;;;;;;;
2021/07/28 10:55:26;;;;;;;7.78;3.85;;;;;;;;;;4368656;32;20204;-78
2021/07/28 11:01:14;;;;;;;6.47;3.80;;;;;;;;;;4374343;32;20195;-78
2021/07/28 11:03:39;;;;;;;7.68;4.00;;;;;;;;;;4361262;32;20159;-78
2021/07/28 11:06:31;;;;;;;11.15;3.62;;;;;;;;;;4360814;32;20174;-78
2021/07/28 11:09:18;;;;;;;8.82;4.00;;;;;;;;;;4357283;32;20211;-78
2021/07/28 11:11:50;;;;;;;8.05;3.87;;;;;;;;;;4350986;33;20167;-79
2021/07/28 11:14:16;;;;;;;7.30;3.72;;;;;;;;;;4343163;32;20167;-79
2021/07/28 11:16:49;;;;;;;10.02;4.20;;;;;;;;;;4343645;32;20281;-79
2021/07/28 11:19:15;;;;;;;10.00;3.80;;;;;;;;;;4344916;33;20189;-78
2021/07/28 11:21:43;;;;;;;10.55;5.00;;;;;;;;;;4342994;32;20164;-78
2021/07/28 11:24:11;;;;;;;10.40;4.30;;;;;;;;;;4343199;33;20201;-75
2021/07/28 11:26:38;;;;;;;7.45;3.85;;;;;;;;;;4364006;32;20259;-79
2021/07/28 11:29:12;;;;;;;7.87;4.05;;;;;;;;;;4359893;32;20567;-78
2021/07/28 11:31:40;;;;;;;10.48;3.97;;;;;;;;;;4343757;32;20324;-78
2021/07/28 11:34:09;;;;;;;7.35;3.70;;;;;;;;;;4342741;32;20584;-78
2021/07/28 11:36:54;;;;;;;9.15;3.80;;;;;;;;;;4342877;32;20168;-79
2021/07/28 11:39:28;;;;;;;10.20;3.95;;;;;;;;;;4421512;32;20199;-78
2021/07/28 11:42:10;;;;;;;6.72;3.20;;;;;;;;;;4405598;32;20223;-79
2021/07/28 11:44:42;;;;;;;7.05;3.40;;;;;;;;;;4406909;32;20237;-76
2021/07/28 11:47:10;;;;;;;5.90;3.35;;;;;;;;;;4407367;32;20199;-79
2021/07/28 11:49:41;;;;;;;7.65;3.80;;;;;;;;;;4419202;32;20191;-77
2021/07/28 11:52:06;;;;;;;7.95;4.10;;;;;;;;;;4418491;32;20153;-80
2021/07/28 11:54:34;;;;;;;7.37;3.83;;;;;;;;;;4406295;32;20200;-78
2021/07/28 11:57:00;;;;;;;5.90;4.07;;;;;;;;;;4420949;32;20500;-76
2021/07/28 11:59:26;;;;;;;9.40;5.53;;;;;;;;;;4406732;32;20169;-77
2021/07/28 12:01:56;;;;;;;10.63;5.70;;;;;;;;;;4406752;32;21331;-77
2021/07/28 12:04:27;;;;;;;13.70;6.43;;;;;;;;;;4420838;32;20158;-77
2021/07/28 12:06:53;;;;;;;13.35;6.57;;;;;;;;;;4386765;32;20597;-77
2021/07/28 12:09:47;;;;;;;;;;;;;;;;;;;;;
2021/07/28 12:12:24;;;;;;;11.80;7.80;;;;;;;;;;4420337;32;20173;-79
2021/07/28 12:15:08;;;;;;;14.13;7.60;;;;;;;;;;4407061;32;20153;-77
2021/07/28 12:17:33;;;;;;;8.60;6.85;;;;;;;;;;4406303;32;20165;-77
2021/07/28 12:20:28;;;;;;;9.13;5.57;;;;;;;;;;4418463;32;20176;-77
2021/07/28 12:25:57;;;;;;;9.85;5.60;;;;;;;;;;4424425;32;20172;-78
2021/07/28 12:28:42;;;;;;;12.80;6.18;;;;;;;;;;4422079;32;20157;-80
2021/07/28 12:31:41;;;;;;;8.70;5.55;;;;;;;;;;4436192;32;20157;-79
2021/07/28 12:34:50;;;;;;;;;;;;;;;;;;;;;
2021/07/28 12:37:27;;;;;;;6.12;4.12;;;;;;;;;;4354819;32;20166;-79
2021/07/28 12:39:54;;;;;;;9.02;4.10;;;;;;;;;;4344614;33;20337;-79
2021/07/28 12:42:35;;;;;;;10.05;4.32;;;;;;;;;;4344605;32;20485;-77
2021/07/28 12:45:15;;;;;;;7.65;4.20;;;;;;;;;;4358410;33;20169;-79
2021/07/28 12:51:06;;;;;;;6.62;4.22;;;;;;;;;;4358490;33;20205;-79
2021/07/28 12:56:57;;;;;;;6.18;4.20;;;;;;;;;;4344106;33;20170;-78
2021/07/28 12:59:22;;;;;;;7.18;4.53;;;;;;;;;;4344671;33;20227;-79
2021/07/28 13:01:58;;;;;;;6.05;3.80;;;;;;;;;;4343927;33;20167;-80
2021/07/28 13:04:29;;;;;;;5.00;3.22;;;;;;;;;;4344213;33;20610;-79
2021/07/28 13:07:01;;;;;;;4.85;3.30;;;;;;;;;;4343924;33;20630;-79
2021/07/28 13:09:26;;;;;;;4.75;3.40;;;;;;;;;;4344268;32;20151;-79
2021/07/28 13:12:12;;;;;;;5.87;3.85;;;;;;;;;;4344215;32;20583;-79
2021/07/28 13:14:47;;;;;;;8.07;3.20;;;;;;;;;;4329052;32;20206;-78
2021/07/28 13:17:24;;;;;;;10.23;3.50;;;;;;;;;;4344821;33;20260;-79
2021/07/28 13:20:26;;;;;;;7.75;3.35;;;;;;;;;;4344442;32;20170;-80
2021/07/28 13:22:52;;;;;;;7.40;3.60;;;;;;;;;;4342065;33;20166;-78
2021/07/28 13:25:17;;;;;;;5.65;3.78;;;;;;;;;;4343948;33;20704;-78
2021/07/28 13:28:05;;;;;;;8.50;4.60;;;;;;;;;;4344109;33;20232;-79
2021/07/28 13:30:31;;;;;;;7.60;4.15;;;;;;;;;;4343440;32;20163;-79
2021/07/28 13:33:03;;;;;;;7.65;4.32;;;;;;;;;;4343076;33;20155;-78
2021/07/28 13:35:28;;;;;;;9.70;5.32;;;;;;;;;;4343118;33;20206;-77
2021/07/28 13:38:06;;;;;;;15.07;8.15;;;;;;;;;;4347554;32;20240;-78
2021/07/28 13:41:20;;;;;;;;;;;;;;;;;;;;;
2021/07/28 13:44:31;;;;;;;8.23;5.10;;;;;;;;;;4349750;33;20228;-78
2021/07/28 13:47:06;;;;;;;6.37;4.78;;;;;;;;;;4344911;32;20242;-77
2021/07/28 13:49:52;;;;;;;11.02;4.70;;;;;;;;;;4348782;32;20599;-77
2021/07/28 13:52:35;;;;;;;;;;;;;;;;;;;;;
2021/07/28 13:55:10;;;;;;;7.57;4.35;;;;;;;;;;4357132;32;20155;-77
2021/07/28 13:58:07;;;;;;;10.23;5.28;;;;;;;;;;4344578;32;20174;-77
2021/07/28 14:01:16;;;;;;;14.52;5.87;;;;;;;;;;4360448;32;20200;-79
2021/07/28 14:03:36;;;;;;;11.50;5.47;;;;;;;;;;4347904;32;20162;-78
2021/07/28 14:06:18;;;;;;;15.68;5.05;;;;;;;;;;4343852;33;20242;-78
2021/07/28 14:12:23;;;;;;;;;;;;;;;;;;;;;
2021/07/28 14:14:59;;;;;;;7.95;3.20;;;;;;;;;;4357947;33;20147;-78
2021/07/28 14:18:07;;;;;;;13.45;4.05;;;;;;;;;;4344397;32;20158;-79
2021/07/28 14:20:31;;;;;;;18.60;3.92;;;;;;;;;;4357457;33;20205;-79
2021/07/28 14:22:57;;;;;;;10.98;3.90;;;;;;;;;;4352948;32;20675;-80
2021/07/28 14:25:23;;;;;;;9.65;4.00;;;;;;;;;;4359507;33;20209;-77
2021/07/28 14:27:57;;;;;;;10.27;3.53;;;;;;;;;;4349101;32;20163;-78
2021/07/28 14:30:22;;;;;;;11.63;4.00;;;;;;;;;;4346367;32;20261;-78
2021/07/28 14:32:48;;;;;;;10.55;3.87;;;;;;;;;;4346095;33;20518;-79
2021/07/28 14:35:16;;;;;;;9.30;3.83;;;;;;;;;;4350210;32;20534;-78
2021/07/28 14:37:41;;;;;;;9.80;3.22;;;;;;;;;;4353295;32;20179;-79
2021/07/28 14:40:14;;;;;;;11.10;3.47;;;;;;;;;;4350654;32;20167;-79
2021/07/28 14:42:43;;;;;;;6.45;3.10;;;;;;;;;;4359406;32;20604;-80
2021/07/28 14:45:08;;;;;;;11.73;3.50;;;;;;;;;;4346036;32;20192;-79
2021/07/28 14:47:57;;;;;;;7.18;2.95;;;;;;;;;;4362969;32;20149;-79
2021/07/28 14:50:22;;;;;;;10.18;3.10;;;;;;;;;;4407587;32;20171;-79
2021/07/28 14:52:50;;;;;;;8.82;2.95;;;;;;;;;;4331079;32;20489;-80
2021/07/28 14:55:15;;;;;;;11.75;2.95;;;;;;;;;;4355532;32;20239;-80
2021/07/28 14:58:11;;;;;;;11.05;3.25;;;;;;;;;;4359063;32;20554;-79
2021/07/28 15:00:39;;;;;;;14.90;3.35;;;;;;;;;;4357997;32;20197;-81
2021/07/28 15:03:05;;;;;;;9.00;3.33;;;;;;;;;;4413782;32;20242;-79
2021/07/28 15:05:36;;;;;;;9.18;3.30;;;;;;;;;;4357292;32;20190;-79
2021/07/28 15:08:03;;;;;;;7.62;2.75;;;;;;;;;;4344738;33;20259;-77
2021/07/28 15:10:34;;;;;;;11.65;2.85;;;;;;;;;;4359156;33;20143;-81
2021/07/28 15:13:17;;;;;;;10.95;2.95;;;;;;;;;;4359182;33;20134;-80
2021/07/28 15:15:43;;;;;;;8.73;3.03;;;;;;;;;;4345757;33;20217;-79
2021/07/28 15:18:24;;;;;;;11.70;2.65;;;;;;;;;;4357231;32;20487;-79
2021/07/28 15:20:53;;;;;;;10.15;3.17;;;;;;;;;;4359596;32;20147;-80
2021/07/28 15:23:18;;;;;;;7.60;2.62;;;;;;;;;;4346025;33;20159;-80
2021/07/28 15:25:44;;;;;;;9.48;3.12;;;;;;;;;;4345666;33;20261;-79
2021/07/28 15:28:21;;;;;;;7.87;2.80;;;;;;;;;;4345884;32;20155;-79
2021/07/28 15:31:25;;;;;;;11.27;2.83;;;;;;;;;;4345557;32;20167;-79
2021/07/28 15:34:13;;;;;;;9.88;2.58;;;;;;;;;;4355485;32;20166;-79
2021/07/28 15:36:38;;;;;;;8.45;2.90;;;;;;;;;;4347733;33;20179;-80
2021/07/28 15:39:26;;;;;;;;;;;;;;;;;;;;;
2021/07/28 15:42:07;;;;;;;10.88;3.20;;;;;;;;;;4359254;32;20150;-79
2021/07/28 15:44:40;;;;;;;10.88;3.30;;;;;;;;;;4355257;33;20159;-79
2021/07/28 15:47:05;;;;;;;8.95;2.72;;;;;;;;;;4358510;32;20154;-79
2021/07/28 15:49:31;;;;;;;6.15;2.42;;;;;;;;;;4358169;32;20640;-80
2021/07/28 15:52:01;;;;;;;13.43;2.90;;;;;;;;;;4355825;32;20524;-79
2021/07/28 15:54:39;;;;;;;;;;;;;;;;;;;;;
2021/07/28 15:57:14;;;;;;;6.35;2.08;;;;;;;;;;4356399;32;20178;-79
2021/07/28 15:59:39;;;;;;;12.37;3.20;;;;;;;;;;4348595;32;20193;-78
2021/07/28 16:02:05;;;;;;;12.80;2.95;;;;;;;;;;4344607;32;20163;-76
2021/07/28 16:04:31;;;;;;;11.43;3.08;;;;;;;;;;4346625;33;20705;-80
2021/07/28 16:06:56;;;;;;;6.65;3.00;;;;;;;;;;4344861;33;20539;-77
2021/07/28 16:09:40;;;;;;;;;;;;;;;;;;;;;
2021/07/28 16:12:08;;;;;;;9.40;3.20;;;;;;;;;;4359184;33;20159;-79
2021/07/28 16:14:38;;;;;;;11.93;3.30;;;;;;;;;;4357311;33;20217;-79
2021/07/28 16:17:25;;;;;;;15.02;3.10;;;;;;;;;;4358265;32;20151;-79
2021/07/28 16:19:59;;;;;;;9.48;3.10;;;;;;;;;;4357841;32;20499;-80
2021/07/28 16:22:31;;;;;;;10.57;3.00;;;;;;;;;;4354849;32;20235;-78
2021/07/28 16:25:07;;;;;;;7.55;2.50;;;;;;;;;;4346920;32;20179;-79
2021/07/28 16:27:38;;;;;;;8.60;2.60;;;;;;;;;;4356915;33;20230;-81
2021/07/28 16:30:09;;;;;;;7.95;2.40;;;;;;;;;;4359062;32;20257;-80
2021/07/28 16:33:01;;;;;;;6.40;2.15;;;;;;;;;;4344711;33;20162;-77
2021/07/28 16:35:29;;;;;;;9.52;2.50;;;;;;;;;;4344217;33;20167;-77
2021/07/28 16:37:58;;;;;;;9.65;2.62;;;;;;;;;;4356859;32;20550;-79
2021/07/28 16:40:43;;;;;;;7.75;2.80;;;;;;;;;;4419989;32;20149;-80
2021/07/28 16:43:09;;;;;;;9.30;2.83;;;;;;;;;;4406452;32;20666;-77
2021/07/28 16:45:34;;;;;;;7.28;2.50;;;;;;;;;;4406915;32;20165;-79
2021/07/28 16:47:59;;;;;;;6.85;2.97;;;;;;;;;;4406788;32;20222;-79
2021/07/28 16:50:25;;;;;;;9.68;2.40;;;;;;;;;;4406025;32;20224;-79
2021/07/28 16:52:50;;;;;;;10.85;2.70;;;;;;;;;;4406323;32;20177;-78
2021/07/28 16:55:18;;;;;;;5.60;2.50;;;;;;;;;;4420973;32;20420;-79
2021/07/28 16:57:53;;;;;;;8.35;2.95;;;;;;;;;;4406267;32;20231;-78
2021/07/28 17:00:41;;;;;;;7.95;2.53;;;;;;;;;;4406197;32;20219;-79
2021/07/28 17:03:06;;;;;;;9.50;2.60;;;;;;;;;;4404955;32;20602;-78
2021/07/28 17:05:32;;;;;;;4.85;2.12;;;;;;;;;;4405666;32;20180;-78
2021/07/28 17:07:57;;;;;;;6.47;1.92;;;;;;;;;;4404942;32;20196;-74
2021/07/28 17:10:26;;;;;;;6.03;2.75;;;;;;;;;;4396326;32;20201;-78
2021/07/28 17:13:14;;;;;;;;;;;;;;;;;;;;;
2021/07/28 17:16:11;;;;;;;7.53;2.65;;;;;;;;;;4419050;32;20192;-79
2021/07/28 17:18:44;;;;;;;7.47;2.10;;;;;;;;;;4405804;32;20157;-79
2021/07/28 17:21:31;;;;;;;5.22;2.20;;;;;;;;;;4406124;32;20149;-79
2021/07/28 17:23:56;;;;;;;6.50;2.20;;;;;;;;;;4419748;32;22000;-79
2021/07/28 17:26:44;;;;;;;5.50;2.30;;;;;;;;;;4406139;32;20173;-78
2021/07/28 17:29:18;;;;;;;8.35;2.60;;;;;;;;;;4398230;32;20176;-79
2021/07/28 17:32:00;;;;;;;7.28;2.40;;;;;;;;;;4405142;32;20255;-79
2021/07/28 17:34:25;;;;;;;8.20;2.28;;;;;;;;;;4407305;32;20189;-77